createdAt,value
2023-02-23T00:02:25.651Z,55.66
2023-02-23T00:04:53.750Z,55.57
2023-02-23T00:07:23.480Z,55.68
2023-02-23T00:09:53.107Z,55.68
2023-02-23T00:12:21.301Z,55.45
2023-02-23T00:14:49.360Z,55.83
2023-02-23T00:17:20.172Z,55.67
2023-02-23T00:19:49.702Z,55.79
2023-02-23T00:22:17.795Z,55.85
2023-02-23T00:24:48.212Z,55.86
2023-02-23T00:27:19.037Z,55.82
2023-02-23T00:29:49.753Z,55.92
2023-02-23T00:32:21.803Z,56.03
2023-02-23T00:34:50.604Z,55.88
2023-02-23T00:37:22.117Z,56.08
2023-02-23T00:39:52.307Z,55.98
2023-02-23T00:42:20.346Z,55.70
2023-02-23T00:44:49.569Z,56.03
2023-02-23T00:47:17.624Z,55.75
2023-02-23T00:49:46.223Z,55.82
2023-02-23T00:52:15.634Z,56.08
2023-02-23T00:54:43.656Z,56.10
2023-02-23T00:57:13.596Z,55.88
2023-02-23T00:59:42.514Z,55.75
2023-02-23T01:02:10.628Z,56.07
2023-02-23T01:04:38.680Z,56.01
2023-02-23T01:07:06.902Z,55.70
2023-02-23T01:09:35.062Z,55.84
2023-02-23T01:12:07.679Z,55.60
2023-02-23T01:14:39.068Z,55.71
2023-02-23T01:17:07.681Z,55.81
2023-02-23T01:19:35.944Z,55.83
2023-02-23T01:22:04.126Z,55.85
2023-02-23T01:24:32.230Z,55.84
2023-02-23T01:27:00.173Z,55.79
2023-02-23T01:29:28.665Z,56.04
2023-02-23T01:31:58.594Z,55.79
2023-02-23T01:34:27.048Z,55.94
2023-02-23T01:36:55.430Z,56.01
2023-02-23T01:39:23.527Z,56.07
2023-02-23T01:41:54.374Z,55.65
2023-02-23T01:44:59.862Z,55.87
2023-02-23T01:47:29.967Z,56.05
2023-02-23T01:50:02.313Z,55.89
2023-02-23T01:52:30.446Z,55.90
2023-02-23T01:54:58.770Z,55.83
2023-02-23T01:57:27.436Z,56.05
2023-02-23T01:59:56.247Z,55.70
2023-02-23T02:02:33.448Z,55.98
2023-02-23T02:05:05.612Z,55.83
2023-02-23T02:07:35.594Z,55.48
2023-02-23T02:10:39.532Z,55.44
2023-02-23T02:13:09.784Z,55.82
2023-02-23T02:15:53.818Z,55.47
2023-02-23T02:18:30.716Z,55.56
2023-02-23T02:21:25.387Z,55.81
2023-02-23T02:24:17.442Z,55.71
2023-02-23T02:26:57.350Z,55.83
2023-02-23T02:29:51.963Z,55.53
2023-02-23T02:32:51.699Z,55.78
2023-02-23T02:35:52.269Z,55.61
2023-02-23T02:38:38.966Z,55.71
2023-02-23T02:41:14.289Z,55.89
2023-02-23T02:43:52.215Z,55.41
2023-02-23T02:46:25.038Z,55.62
2023-02-23T02:49:03.843Z,55.46
2023-02-23T02:51:36.832Z,55.43
2023-02-23T02:54:13.523Z,55.50
2023-02-23T02:56:44.723Z,55.34
2023-02-23T02:59:33.782Z,55.58
2023-02-23T03:02:19.605Z,55.40
2023-02-23T03:05:06.800Z,55.50
2023-02-23T03:07:59.231Z,55.28
2023-02-23T03:10:55.684Z,55.49
2023-02-23T03:13:52.000Z,55.57
2023-02-23T03:16:49.434Z,55.44
2023-02-23T03:19:41.694Z,55.64
2023-02-23T03:22:37.346Z,55.64
2023-02-23T03:25:29.359Z,55.19
2023-02-23T03:28:26.300Z,55.61
2023-02-23T03:31:21.417Z,55.36
2023-02-23T03:34:15.000Z,55.54
2023-02-23T03:37:08.943Z,55.30
2023-02-23T03:39:59.791Z,55.19
2023-02-23T03:42:51.905Z,55.20
2023-02-23T03:45:41.980Z,55.37
2023-02-23T03:48:30.975Z,55.18
2023-02-23T03:51:21.204Z,55.59
2023-02-23T03:54:12.296Z,55.22
2023-02-23T03:57:02.954Z,55.37
2023-02-23T03:59:53.017Z,55.42
2023-02-23T04:02:42.466Z,55.38
2023-02-23T04:05:33.964Z,55.22
2023-02-23T04:08:23.288Z,55.26
2023-02-23T04:11:17.980Z,55.47
2023-02-23T04:13:48.619Z,55.53
2023-02-23T04:16:16.116Z,55.44
2023-02-23T04:18:46.194Z,55.03
2023-02-23T04:21:14.415Z,54.81
2023-02-23T04:23:45.215Z,55.03
2023-02-23T04:26:13.665Z,55.13
2023-02-23T04:28:41.779Z,55.13
2023-02-23T04:31:09.973Z,55.08
2023-02-23T04:33:39.445Z,55.22
2023-02-23T04:36:10.147Z,55.04
2023-02-23T04:38:39.011Z,54.91
2023-02-23T04:41:07.253Z,55.10
2023-02-23T04:43:35.379Z,55.01
2023-02-23T04:46:03.437Z,54.86
2023-02-23T04:48:31.548Z,54.90
2023-02-23T04:51:01.018Z,55.06
2023-02-23T04:53:30.509Z,55.03
2023-02-23T04:55:58.541Z,55.37
2023-02-23T04:58:27.140Z,54.93
2023-02-23T05:00:55.224Z,55.13
2023-02-23T05:03:23.776Z,55.04
2023-02-23T05:05:51.741Z,55.33
2023-02-23T05:08:19.802Z,55.08
2023-02-23T05:10:49.369Z,55.10
2023-02-23T05:13:17.355Z,55.42
2023-02-23T05:15:45.491Z,55.34
2023-02-23T05:18:13.538Z,55.24
2023-02-23T05:20:46.771Z,55.42
2023-02-23T05:23:15.118Z,55.13
2023-02-23T05:25:43.223Z,55.48
2023-02-23T05:28:12.667Z,55.24
2023-02-23T05:30:40.805Z,54.92
2023-02-23T05:33:08.846Z,55.32
2023-02-23T05:35:37.033Z,55.41
2023-02-23T05:38:05.851Z,54.97
2023-02-23T05:40:34.379Z,55.04
2023-02-23T05:43:03.434Z,55.15
2023-02-23T05:45:33.336Z,55.19
2023-02-23T05:48:01.834Z,55.30
2023-02-23T05:50:30.049Z,55.37
2023-02-23T05:52:58.149Z,55.18
2023-02-23T05:55:29.676Z,55.38
2023-02-23T05:57:57.683Z,55.20
2023-02-23T06:00:26.242Z,55.17
2023-02-23T06:02:56.655Z,55.13
2023-02-23T06:05:24.816Z,55.10
2023-02-23T06:07:53.437Z,54.98
2023-02-23T06:10:21.784Z,55.11
2023-02-23T06:12:49.785Z,55.13
2023-02-23T06:15:18.762Z,54.84
2023-02-23T06:17:46.799Z,55.33
2023-02-23T06:20:16.344Z,55.23
2023-02-23T06:22:44.823Z,55.21
2023-02-23T06:25:14.042Z,54.97
2023-02-23T06:27:42.724Z,55.07
2023-02-23T06:30:12.207Z,54.85
2023-02-23T06:32:40.531Z,54.95
2023-02-23T06:35:10.058Z,54.97
2023-02-23T06:37:39.593Z,55.19
2023-02-23T06:40:09.092Z,54.75
2023-02-23T06:42:40.890Z,55.25
2023-02-23T06:45:09.724Z,55.17
2023-02-23T06:47:37.757Z,55.09
2023-02-23T06:50:06.989Z,54.90
2023-02-23T06:52:35.201Z,54.75
2023-02-23T06:55:04.894Z,55.26
2023-02-23T06:57:32.951Z,55.02
2023-02-23T07:00:01.841Z,55.15
2023-02-23T07:02:30.138Z,55.30
2023-02-23T07:04:58.868Z,54.85
2023-02-23T07:07:27.434Z,54.94
2023-02-23T07:09:58.115Z,55.13
2023-02-23T07:12:27.980Z,55.12
2023-02-23T07:14:56.129Z,54.86
2023-02-23T07:17:24.409Z,55.07
2023-02-23T07:19:52.702Z,55.42
2023-02-23T07:22:22.315Z,55.46
2023-02-23T07:24:50.513Z,55.31
2023-02-23T07:27:18.484Z,55.13
2023-02-23T07:29:48.560Z,55.33
2023-02-23T07:32:16.846Z,55.67
2023-02-23T07:34:46.026Z,55.50
2023-02-23T07:37:14.719Z,55.60
2023-02-23T07:39:42.735Z,55.20
2023-02-23T07:42:11.561Z,55.50
2023-02-23T07:44:40.292Z,55.24
2023-02-23T07:47:09.749Z,55.14
2023-02-23T07:49:38.086Z,55.60
2023-02-23T07:52:06.316Z,54.83
2023-02-23T07:54:34.955Z,55.01
2023-02-23T07:57:03.094Z,54.96
2023-02-23T07:59:32.209Z,54.90
2023-02-23T08:02:01.215Z,54.81
2023-02-23T08:04:31.516Z,55.08
2023-02-23T08:06:59.572Z,54.76
2023-02-23T08:09:27.547Z,54.87
2023-02-23T08:11:55.652Z,54.71
2023-02-23T08:14:25.085Z,54.69
2023-02-23T08:16:53.181Z,54.64
2023-02-23T08:19:22.978Z,54.53
2023-02-23T08:21:52.520Z,54.42
2023-02-23T08:24:20.641Z,54.10
2023-02-23T08:26:50.459Z,53.69
2023-02-23T08:29:19.027Z,53.89
2023-02-23T08:31:47.315Z,53.97
2023-02-23T08:34:15.893Z,53.66
2023-02-23T08:36:45.908Z,53.62
2023-02-23T08:39:16.859Z,53.71
2023-02-23T08:41:44.905Z,53.86
2023-02-23T08:44:12.856Z,53.91
2023-02-23T08:46:40.967Z,53.53
2023-02-23T08:49:10.877Z,53.40
2023-02-23T08:51:38.835Z,53.51
2023-02-23T08:54:12.831Z,53.57
2023-02-23T08:56:42.662Z,53.43
2023-02-23T08:59:11.459Z,53.44
2023-02-23T09:01:39.683Z,53.18
2023-02-23T09:04:08.080Z,53.12
2023-02-23T09:06:36.509Z,53.01
2023-02-23T09:09:04.990Z,53.16
2023-02-23T09:11:33.118Z,52.81
2023-02-23T09:14:02.734Z,52.77
2023-02-23T09:16:33.953Z,52.74
2023-02-23T09:19:02.326Z,52.58
2023-02-23T09:21:30.866Z,52.53
2023-02-23T09:23:59.142Z,52.42
2023-02-23T09:26:28.847Z,52.30
2023-02-23T09:28:59.248Z,52.35
2023-02-23T09:31:28.998Z,52.14
2023-02-23T09:33:57.287Z,52.12
2023-02-23T09:36:26.658Z,52.35
2023-02-23T09:38:57.768Z,52.10
2023-02-23T09:41:47.244Z,51.96
2023-02-23T09:44:26.819Z,51.85
2023-02-23T09:47:06.622Z,51.71
2023-02-23T09:49:40.151Z,51.19
2023-02-23T09:52:16.953Z,50.76
2023-02-23T09:54:45.864Z,50.72
2023-02-23T09:57:17.871Z,50.41
2023-02-23T09:59:46.939Z,50.26
2023-02-23T10:02:26.747Z,50.11
2023-02-23T10:05:00.755Z,49.50
2023-02-23T10:07:42.518Z,49.57
2023-02-23T10:10:24.278Z,49.25
2023-02-23T10:12:59.248Z,49.18
2023-02-23T10:15:37.372Z,48.96
2023-02-23T10:18:20.714Z,48.78
2023-02-23T10:20:59.472Z,48.64
2023-02-23T10:23:31.516Z,48.79
2023-02-23T10:26:02.744Z,48.46
2023-02-23T10:28:36.190Z,48.22
2023-02-23T10:31:09.050Z,48.26
2023-02-23T10:33:42.959Z,47.79
2023-02-23T10:36:19.386Z,47.71
2023-02-23T10:38:48.023Z,47.39
2023-02-23T10:41:16.252Z,47.33
2023-02-23T10:43:44.272Z,47.30
2023-02-23T10:46:21.696Z,46.93
2023-02-23T10:48:52.833Z,47.68
2023-02-23T10:51:30.190Z,47.02
2023-02-23T10:54:03.041Z,46.98
2023-02-23T10:56:45.631Z,46.89
2023-02-23T10:59:21.068Z,46.69
2023-02-23T11:02:01.387Z,46.45
2023-02-23T11:04:35.055Z,46.29
2023-02-23T11:07:16.411Z,45.94
2023-02-23T11:09:47.730Z,45.90
2023-02-23T11:12:23.083Z,45.53
2023-02-23T11:14:52.795Z,45.71
2023-02-23T11:17:34.205Z,45.64
2023-02-23T11:20:06.881Z,45.73
2023-02-23T11:22:37.603Z,45.57
2023-02-23T11:25:17.232Z,45.36
2023-02-23T11:27:51.700Z,45.30
2023-02-23T11:30:24.685Z,45.23
2023-02-23T11:32:54.386Z,45.46
2023-02-23T11:35:32.957Z,45.14
2023-02-23T11:38:01.341Z,45.07
2023-02-23T11:40:32.388Z,44.81
2023-02-23T11:43:10.104Z,44.34
2023-02-23T11:45:45.915Z,44.19
2023-02-23T11:48:22.224Z,44.16
2023-02-23T11:50:53.277Z,43.91
2023-02-23T11:53:28.651Z,43.98
2023-02-23T11:56:03.742Z,43.71
2023-02-23T11:58:38.875Z,43.56
2023-02-23T12:01:12.335Z,43.32
2023-02-23T12:03:48.008Z,43.34
2023-02-23T12:06:30.642Z,43.34
2023-02-23T12:09:05.693Z,43.19
2023-02-23T12:11:38.892Z,43.24
2023-02-23T12:14:13.866Z,43.56
2023-02-23T12:16:48.275Z,43.41
2023-02-23T12:19:26.598Z,43.69
2023-02-23T12:22:04.630Z,43.70
2023-02-23T12:24:42.318Z,43.59
2023-02-23T12:27:18.060Z,43.52
2023-02-23T12:30:03.722Z,43.64
2023-02-23T12:32:45.652Z,43.34
2023-02-23T12:35:20.036Z,43.55
2023-02-23T12:37:57.989Z,43.47
2023-02-23T12:40:29.592Z,43.48
2023-02-23T12:43:06.713Z,43.74
2023-02-23T12:45:42.186Z,43.47
2023-02-23T12:48:21.212Z,43.66
2023-02-23T12:50:54.356Z,43.57
2023-02-23T12:53:30.033Z,43.68
2023-02-23T12:56:26.398Z,43.32
2023-02-23T12:59:06.865Z,43.48
2023-02-23T13:01:38.580Z,43.35
2023-02-23T13:04:23.805Z,43.65
2023-02-23T13:07:00.727Z,43.60
2023-02-23T13:09:46.855Z,43.98
2023-02-23T13:12:24.667Z,43.50
2023-02-23T13:14:59.729Z,43.56
2023-02-23T13:17:38.425Z,43.60
2023-02-23T13:20:17.520Z,42.93
2023-02-23T13:22:51.943Z,43.11
2023-02-23T13:25:36.096Z,43.06
2023-02-23T13:28:05.349Z,43.22
2023-02-23T13:30:33.838Z,43.45
2023-02-23T13:33:12.639Z,42.68
2023-02-23T13:35:51.175Z,42.83
2023-02-23T13:38:26.201Z,42.70
2023-02-23T13:41:05.275Z,42.53
2023-02-23T13:43:40.149Z,42.24
2023-02-23T13:46:31.680Z,42.28
2023-02-23T13:49:04.580Z,42.39
2023-02-23T13:51:38.879Z,42.32
2023-02-23T13:54:23.218Z,42.29
2023-02-23T13:56:56.831Z,42.50
2023-02-23T13:59:32.437Z,42.51
2023-02-23T14:02:03.961Z,42.20
2023-02-23T14:04:38.368Z,42.27
2023-02-23T14:07:22.748Z,41.97
2023-02-23T14:09:56.014Z,41.58
2023-02-23T14:12:33.659Z,41.01
2023-02-23T14:15:30.898Z,40.96
2023-02-23T14:18:00.126Z,40.93
2023-02-23T14:20:45.673Z,40.79
2023-02-23T14:23:18.577Z,40.46
2023-02-23T14:25:57.332Z,40.69
2023-02-23T14:28:35.058Z,40.31
2023-02-23T14:31:09.884Z,41.44
2023-02-23T14:33:52.371Z,44.20
2023-02-23T14:36:45.797Z,44.63
2023-02-23T14:39:23.719Z,43.04
2023-02-23T14:41:55.345Z,41.75
2023-02-23T14:44:30.922Z,41.37
2023-02-23T14:47:04.494Z,40.82
2023-02-23T14:49:37.049Z,39.55
2023-02-23T14:52:11.065Z,37.98
2023-02-23T14:54:40.860Z,37.34
2023-02-23T14:57:19.044Z,37.07
2023-02-23T14:59:55.940Z,36.55
2023-02-23T15:02:26.543Z,36.79
2023-02-23T15:04:55.197Z,37.19
2023-02-23T15:07:32.377Z,37.44
2023-02-23T15:10:02.518Z,38.58
2023-02-23T15:12:36.339Z,39.69
2023-02-23T15:15:14.359Z,39.09
2023-02-23T15:17:48.057Z,39.65
2023-02-23T15:20:18.974Z,39.99
2023-02-23T15:22:50.034Z,40.55
2023-02-23T15:25:21.065Z,40.08
2023-02-23T15:27:51.768Z,37.48
2023-02-23T15:30:27.733Z,35.28
2023-02-23T15:33:04.134Z,34.48
2023-02-23T15:35:38.039Z,33.89
2023-02-23T15:38:17.990Z,33.94
2023-02-23T15:40:56.919Z,34.48
2023-02-23T15:43:25.389Z,34.79
2023-02-23T15:45:56.207Z,34.75
2023-02-23T15:48:27.686Z,35.03
2023-02-23T15:50:57.864Z,35.58
2023-02-23T15:53:30.886Z,35.31
2023-02-23T15:56:05.405Z,35.84
2023-02-23T15:58:44.562Z,36.14
2023-02-23T16:01:24.946Z,36.48
2023-02-23T16:04:01.310Z,36.35
2023-02-23T16:06:34.317Z,36.46
2023-02-23T16:09:05.938Z,36.74
2023-02-23T16:11:36.553Z,36.88
2023-02-23T16:14:07.040Z,37.00
2023-02-23T16:16:37.169Z,36.70
2023-02-23T16:19:05.960Z,35.89
2023-02-23T16:21:34.848Z,35.69
2023-02-23T16:24:10.418Z,35.23
2023-02-23T16:26:47.350Z,35.14
2023-02-23T16:29:19.537Z,35.29
2023-02-23T16:31:51.716Z,35.53
2023-02-23T16:34:22.736Z,35.52
2023-02-23T16:36:53.824Z,35.68
2023-02-23T16:39:25.404Z,35.82
2023-02-23T16:41:53.453Z,36.07
2023-02-23T16:44:26.293Z,35.59
2023-02-23T16:47:12.399Z,36.29
2023-02-23T16:49:40.568Z,36.49
2023-02-23T16:52:19.125Z,36.24
2023-02-23T16:54:52.625Z,36.41
2023-02-23T16:57:25.652Z,36.38
2023-02-23T16:59:55.842Z,36.39
2023-02-23T17:02:25.441Z,36.55
2023-02-23T17:04:59.093Z,36.37
2023-02-23T17:07:27.608Z,36.36
2023-02-23T17:09:56.129Z,36.73
2023-02-23T17:12:24.447Z,36.34
2023-02-23T17:14:52.522Z,36.57
2023-02-23T17:17:21.822Z,36.66
2023-02-23T17:19:51.495Z,36.51
2023-02-23T17:22:21.011Z,37.13
2023-02-23T17:24:49.145Z,37.18
2023-02-23T17:27:17.173Z,36.89
2023-02-23T17:29:45.271Z,37.26
2023-02-23T17:32:13.611Z,37.43
2023-02-23T17:34:41.925Z,37.58
2023-02-23T17:37:11.789Z,37.59
2023-02-23T17:39:41.048Z,37.53
2023-02-23T17:42:09.773Z,37.48
2023-02-23T17:44:39.418Z,37.60
2023-02-23T17:47:07.425Z,37.70
2023-02-23T17:49:35.597Z,37.79
2023-02-23T17:52:04.265Z,38.29
2023-02-23T17:54:33.920Z,37.73
2023-02-23T17:57:02.130Z,38.09
2023-02-23T17:59:30.294Z,38.61
2023-02-23T18:02:00.238Z,39.03
2023-02-23T18:04:29.001Z,38.81
2023-02-23T18:06:57.816Z,39.20
2023-02-23T18:09:26.401Z,39.43
2023-02-23T18:11:57.944Z,39.38
2023-02-23T18:14:26.271Z,39.80
2023-02-23T18:16:54.431Z,39.98
2023-02-23T18:19:22.914Z,40.22
2023-02-23T18:21:51.099Z,39.93
2023-02-23T18:24:19.325Z,40.52
2023-02-23T18:26:47.484Z,40.50
2023-02-23T18:29:18.857Z,40.88
2023-02-23T18:31:48.203Z,40.58
2023-02-23T18:34:16.405Z,40.98
2023-02-23T18:36:44.872Z,41.23
2023-02-23T18:39:13.677Z,41.42
2023-02-23T18:41:45.497Z,41.35
2023-02-23T18:44:17.052Z,41.50
2023-02-23T18:46:47.432Z,41.74
2023-02-23T18:49:16.658Z,41.66
2023-02-23T18:51:45.068Z,41.51
2023-02-23T18:54:16.911Z,41.77
2023-02-23T18:56:45.494Z,42.06
2023-02-23T19:05:24.862Z,41.96
2023-02-23T19:07:54.997Z,42.04
2023-02-23T19:10:23.939Z,42.16
2023-02-23T19:13:06.884Z,42.07
2023-02-23T19:15:39.152Z,42.34
2023-02-23T19:18:08.442Z,42.17
2023-02-23T19:20:36.860Z,42.46
2023-02-23T19:23:06.191Z,42.39
2023-02-23T19:25:34.428Z,42.51
2023-02-23T19:31:09.489Z,42.69
2023-02-23T19:33:40.051Z,43.02
2023-02-23T19:36:11.098Z,42.90
2023-02-23T19:38:39.769Z,43.31
2023-02-23T19:41:08.597Z,42.94
2023-02-23T19:43:36.901Z,42.99
2023-02-23T19:46:08.681Z,43.27
2023-02-23T19:48:38.194Z,43.11
2023-02-23T19:51:10.286Z,43.24
2023-02-23T19:53:42.003Z,43.33
2023-02-23T19:56:15.230Z,43.33
2023-02-23T19:58:47.056Z,43.42
2023-02-23T20:01:37.791Z,43.52
2023-02-23T20:04:08.388Z,43.61
2023-02-23T20:06:44.939Z,43.80
2023-02-23T20:09:13.230Z,43.72
2023-02-23T20:11:42.875Z,43.80
2023-02-23T20:14:13.450Z,44.01
2023-02-23T20:16:43.030Z,44.04
2023-02-23T20:19:13.294Z,43.93
2023-02-23T20:21:42.244Z,43.97
2023-02-23T20:24:12.891Z,44.05
2023-02-23T20:26:40.924Z,44.39
2023-02-23T20:29:13.629Z,44.14
2023-02-23T20:31:50.815Z,43.91
2023-02-23T20:34:22.818Z,43.97
2023-02-23T20:36:52.228Z,44.23
2023-02-23T20:39:20.917Z,44.47
2023-02-23T20:41:53.650Z,44.39
2023-02-23T20:44:23.862Z,44.17
2023-02-23T20:46:53.453Z,44.41
2023-02-23T20:49:22.951Z,44.46
2023-02-23T20:51:51.151Z,44.60
2023-02-23T20:54:21.955Z,44.42
2023-02-23T20:56:58.927Z,44.50
2023-02-23T20:59:31.086Z,44.91
2023-02-23T21:02:14.181Z,44.87
2023-02-23T21:05:00.765Z,44.81
2023-02-23T21:07:33.241Z,45.28
2023-02-23T21:10:02.376Z,45.22
2023-02-23T21:12:37.108Z,45.29
2023-02-23T21:15:14.737Z,45.30
2023-02-23T21:17:48.749Z,45.33
2023-02-23T21:20:22.409Z,45.19
2023-02-23T21:22:52.860Z,45.25
2023-02-23T21:25:24.790Z,45.10
2023-02-23T21:27:59.153Z,45.06
2023-02-23T21:30:30.257Z,45.23
2023-02-23T21:33:04.138Z,44.99
2023-02-23T21:35:34.492Z,45.18
2023-02-23T21:38:06.349Z,45.29
2023-02-23T21:40:42.330Z,45.40
2023-02-23T21:43:16.782Z,45.27
2023-02-23T21:45:47.361Z,45.43
2023-02-23T21:48:16.961Z,45.40
2023-02-23T21:50:49.157Z,45.46
2023-02-23T21:53:20.802Z,45.55
2023-02-23T21:55:53.590Z,45.59
2023-02-23T21:58:31.550Z,45.87
2023-02-23T22:01:00.864Z,45.95
2023-02-23T22:03:39.455Z,46.25
2023-02-23T22:06:13.080Z,46.01
2023-02-23T22:08:55.033Z,46.19
2023-02-23T22:11:37.422Z,45.93
2023-02-23T22:14:12.932Z,46.29
2023-02-23T22:16:48.643Z,46.40
2023-02-23T22:19:24.468Z,46.25
2023-02-23T22:22:00.801Z,46.26
2023-02-23T22:24:29.651Z,46.37
2023-02-23T22:27:00.485Z,46.19
2023-02-23T22:29:28.650Z,46.57
2023-02-23T22:31:57.482Z,46.27
2023-02-23T22:34:34.588Z,46.65
2023-02-23T22:37:03.322Z,46.35
2023-02-23T22:39:36.274Z,46.92
2023-02-23T22:45:13.148Z,46.55
2023-02-23T22:47:46.296Z,47.29
2023-02-23T22:50:29.285Z,46.72
2023-02-23T22:53:03.002Z,46.89
2023-02-23T22:55:35.774Z,47.29
2023-02-23T22:58:08.576Z,46.72
2023-02-23T23:00:37.403Z,47.14
2023-02-23T23:03:06.538Z,47.44
2023-02-23T23:05:37.563Z,47.03
2023-02-23T23:08:06.805Z,46.82
2023-02-23T23:10:36.702Z,46.95
2023-02-23T23:13:08.545Z,47.54
2023-02-23T23:15:39.661Z,47.21
2023-02-23T23:18:16.248Z,47.08
2023-02-23T23:20:45.865Z,47.26
2023-02-23T23:23:15.551Z,47.06
2023-02-23T23:25:47.709Z,47.33
2023-02-23T23:28:16.976Z,47.19
2023-02-23T23:30:46.327Z,47.33
2023-02-23T23:33:15.135Z,47.06
2023-02-23T23:35:43.646Z,47.48
2023-02-23T23:38:14.591Z,47.11
2023-02-23T23:40:47.425Z,47.45
2023-02-23T23:43:15.746Z,47.45
2023-02-23T23:45:54.278Z,47.76
2023-02-23T23:48:22.358Z,47.33
2023-02-23T23:50:51.391Z,47.55
2023-02-23T23:53:22.291Z,47.80
2023-02-23T23:55:50.639Z,47.77
2023-02-23T23:58:19.881Z,48.13
